Time;durP1;ratioP1;P1;durP2;ratioP2;P2;SDS_P1;SDS_P2;PMS_P1;PMS_P2;Temp;Humidity;BMP_temperature;BMP_pressure;BME280_temperature;BME280_humidity;BME280_pressure;Samples;Min_cycle;Max_cycle;Signal;HPM_P1;HPM_P2
2022/05/15 00:03:43;;;;;;;;;;;;;;;;;;;;;
2022/05/15 00:20:26;;;;;;;;;;;;;;;;;;;;;
2022/05/15 00:57:37;;;;;;;5.00;3.88;;;14.20;95.80;;;;;;4158082;22;20065;-82
2022/05/15 01:19:36;;;;;;;3.53;3.10;;;14.10;96.50;;;;;;4953507;29;20078;-81
2022/05/15 01:30:05;;;;;;;;;;;;;;;;;;;;;
2022/05/15 01:40:17;;;;;;;;;;;;;;;;;;;;;
2022/05/15 01:44:03;;;;;;;3.10;2.78;;;13.80;97.90;;;;;;4929766;29;20092;-82
2022/05/15 01:54:55;;;;;;;3.88;3.28;;;13.60;98.90;;;;;;4982370;28;20037;-81
2022/05/15 01:57:35;;;;;;;4.68;3.42;;;13.60;99.30;;;;;;5033845;28;20057;-81
2022/05/15 02:04:18;;;;;;;3.33;2.95;;;13.60;99.50;;;;;;5030384;28;20030;-82
2022/05/15 02:07:17;;;;;;;;;;;;;;;;;;;;;
2022/05/15 02:24:18;;;;;;;5.63;4.20;;;13.20;99.90;;;;;;5025835;28;20032;-82
2022/05/15 02:37:36;;;;;;;5.55;3.92;;;13.10;99.90;;;;;;5023968;28;20037;-82
2022/05/15 02:48:10;;;;;;;;;;;;;;;;;;;;;
2022/05/15 03:05:42;;;;;;;;;;;;;;;;;;;;;
2022/05/15 03:11:56;;;;;;;6.68;3.67;;;12.90;99.90;;;;;;4980258;28;19906;-81
2022/05/15 03:18:25;;;;;;;3.70;3.40;;;12.80;99.90;;;;;;5003824;28;20037;-82
2022/05/15 03:21:29;;;;;;;4.95;3.67;;;12.80;99.90;;;;;;4942551;29;20028;-81
2022/05/15 03:24:35;;;;;;;4.55;3.53;;;12.70;99.90;;;;;;4940839;28;20069;-82
2022/05/15 03:27:13;;;;;;;5.30;3.55;;;12.80;99.90;;;;;;4999140;28;20043;-82
2022/05/15 03:40:12;;;;;;;5.03;3.95;;;12.90;99.90;;;;;;4985093;28;20530;-82
2022/05/15 03:42:38;;;;;;;5.32;3.63;;;12.90;99.90;;;;;;4983121;28;20111;-80
2022/05/15 03:45:04;;;;;;;3.97;3.38;;;12.80;99.90;;;;;;4990150;28;20510;-78
2022/05/15 03:47:30;;;;;;;3.88;3.30;;;12.80;99.90;;;;;;4997562;28;20101;-79
2022/05/15 03:50:04;;;;;;;4.00;3.60;;;12.90;99.90;;;;;;4997728;28;20022;-78
2022/05/15 03:52:30;;;;;;;4.93;3.50;;;12.90;99.90;;;;;;4997776;28;20023;-77
2022/05/15 03:54:56;;;;;;;4.15;3.67;;;12.90;99.90;;;;;;4996531;28;20523;-78
2022/05/15 03:57:22;;;;;;;4.15;3.53;;;12.90;99.90;;;;;;4996888;28;20034;-78
2022/05/15 03:59:48;;;;;;;6.30;4.07;;;12.90;99.90;;;;;;4997590;28;20084;-79
2022/05/15 04:02:13;;;;;;;5.28;3.85;;;12.90;99.90;;;;;;4997876;28;20022;-80
2022/05/15 04:04:39;;;;;;;3.53;3.22;;;12.90;99.90;;;;;;4981876;28;20049;-80
2022/05/15 04:07:05;;;;;;;7.57;3.67;;;12.90;99.90;;;;;;4979753;28;20160;-78
2022/05/15 04:09:32;;;;;;;4.72;3.40;;;13.00;99.90;;;;;;4996875;28;20021;-76
2022/05/15 04:11:58;;;;;;;3.80;3.40;;;13.00;99.90;;;;;;4998763;28;20122;-78
2022/05/15 04:14:24;;;;;;;3.58;3.28;;;13.10;99.90;;;;;;4999695;28;20058;-77
2022/05/15 04:16:50;;;;;;;3.70;3.30;;;13.10;99.90;;;;;;4999271;28;20042;-78
2022/05/15 04:19:16;;;;;;;3.40;3.05;;;13.20;99.90;;;;;;4981632;28;20066;-78
2022/05/15 04:21:41;;;;;;;5.80;3.58;;;13.20;99.90;;;;;;4997323;28;20037;-79
2022/05/15 04:24:16;;;;;;;4.25;3.85;;;13.20;99.90;;;;;;5001172;28;20061;-78
2022/05/15 04:26:43;;;;;;;5.22;3.67;;;13.30;99.90;;;;;;5003654;28;20396;-78
2022/05/15 04:29:09;;;;;;;5.05;3.13;;;13.30;99.90;;;;;;4999663;28;20030;-77
2022/05/15 04:31:35;;;;;;;3.20;2.90;;;13.30;99.90;;;;;;4998893;28;20098;-79
2022/05/15 04:34:02;;;;;;;4.97;3.42;;;13.30;99.90;;;;;;5000985;28;20030;-78
2022/05/15 04:36:28;;;;;;;2.97;2.67;;;13.30;99.90;;;;;;5000748;28;20057;-78
2022/05/15 04:38:54;;;;;;;3.38;3.00;;;13.40;99.90;;;;;;5012062;28;20026;-78
2022/05/15 04:41:21;;;;;;;3.42;2.53;;;13.40;99.90;;;;;;5011810;28;20027;-78
2022/05/15 04:43:48;;;;;;;3.80;3.10;;;13.50;99.90;;;;;;5002907;28;20029;-81
2022/05/15 04:46:15;;;;;;;5.57;3.42;;;13.50;99.90;;;;;;5004124;28;20026;-79
2022/05/15 04:48:41;;;;;;;4.07;3.40;;;13.60;99.90;;;;;;5000415;28;20049;-78
2022/05/15 04:51:08;;;;;;;4.50;2.92;;;13.50;99.90;;;;;;4997658;28;20026;-77
2022/05/15 04:53:33;;;;;;;3.35;3.05;;;13.50;99.90;;;;;;4997882;28;20006;-77
2022/05/15 04:56:00;;;;;;;4.05;3.13;;;13.60;99.90;;;;;;4996918;28;20050;-79
2022/05/15 04:58:27;;;;;;;3.88;3.53;;;13.60;99.90;;;;;;4995285;28;20116;-76
2022/05/15 05:00:53;;;;;;;5.30;2.88;;;13.70;99.80;;;;;;4995807;28;20089;-78
2022/05/15 05:03:20;;;;;;;3.35;3.03;;;13.70;99.70;;;;;;4998372;28;20649;-79
2022/05/15 05:05:45;;;;;;;3.42;2.90;;;13.80;99.60;;;;;;4996527;28;20037;-79
2022/05/15 05:08:12;;;;;;;2.88;2.30;;;13.90;99.40;;;;;;4995737;28;20527;-79
2022/05/15 05:10:39;;;;;;;2.78;2.58;;;14.30;99.50;;;;;;4996785;28;20038;-79
2022/05/15 05:13:05;;;;;;;2.90;2.70;;;15.10;98.30;;;;;;4996126;28;20671;-79
2022/05/15 05:15:31;;;;;;;4.05;2.50;;;16.20;96.00;;;;;;4997023;28;20110;-78
2022/05/15 05:17:57;;;;;;;5.20;3.05;;;17.10;92.90;;;;;;4996821;28;20023;-78
2022/05/15 05:20:23;;;;;;;3.45;2.40;;;17.00;91.30;;;;;;4996889;28;20034;-78
2022/05/15 05:22:49;;;;;;;2.47;2.28;;;16.70;91.10;;;;;;4996798;28;20105;-77
2022/05/15 05:25:16;;;;;;;2.72;2.53;;;16.50;91.40;;;;;;4998404;28;20062;-78
2022/05/15 05:27:43;;;;;;;3.25;2.35;;;17.30;91.80;;;;;;5015953;28;20035;-79
2022/05/15 05:30:17;;;;;;;3.05;2.50;;;20.40;87.20;;;;;;4998441;28;20027;-80
2022/05/15 05:32:53;;;;;;;2.90;2.03;;;24.20;73.60;;;;;;5015786;28;20082;-77
2022/05/15 05:35:21;;;;;;;2.15;1.88;;;27.30;60.90;;;;;;5010345;28;20081;-80
2022/05/15 05:37:47;;;;;;;1.85;1.75;;;29.50;53.70;;;;;;4998944;28;20031;-79
2022/05/15 05:40:14;;;;;;;1.90;1.80;;;30.90;49.60;;;;;;4997298;28;20041;-79
2022/05/15 05:42:39;;;;;;;2.22;2.03;;;31.90;47.10;;;;;;4996539;28;20391;-78
2022/05/15 05:45:06;;;;;;;2.25;2.05;;;32.70;44.70;;;;;;4996468;28;20033;-78
2022/05/15 05:47:32;;;;;;;1.88;1.77;;;33.40;42.80;;;;;;5001126;28;20041;-81
2022/05/15 05:49:58;;;;;;;1.90;1.70;;;33.40;41.90;;;;;;4986367;28;20042;-81
2022/05/15 05:52:26;;;;;;;1.70;1.60;;;33.80;41.10;;;;;;5008709;28;20090;-82
2022/05/15 05:54:53;;;;;;;1.80;1.70;;;34.00;40.80;;;;;;4998470;28;20094;-83
2022/05/15 05:57:21;;;;;;;2.05;1.90;;;34.40;40.50;;;;;;5000993;28;20057;-82
2022/05/15 05:59:47;;;;;;;2.00;1.83;;;34.80;39.50;;;;;;4998896;28;20027;-82
2022/05/15 06:02:13;;;;;;;1.40;1.30;;;35.30;39.00;;;;;;4995611;28;20026;-82
2022/05/15 06:04:40;;;;;;;1.58;1.40;;;35.40;38.00;;;;;;5008667;28;20082;-82
2022/05/15 06:07:07;;;;;;;1.90;1.80;;;34.60;38.30;;;;;;5011853;28;20110;-83
2022/05/15 06:09:33;;;;;;;2.17;1.98;;;33.90;38.50;;;;;;5013545;28;20034;-82
2022/05/15 06:12:00;;;;;;;1.83;1.73;;;33.40;39.60;;;;;;5014162;28;20065;-83
2022/05/15 06:14:25;;;;;;;2.00;1.73;;;33.80;39.80;;;;;;5014105;28;20022;-82
2022/05/15 06:16:51;;;;;;;2.00;1.90;;;34.70;38.50;;;;;;5006319;28;20080;-81
2022/05/15 06:19:17;;;;;;;2.13;1.92;;;34.70;38.40;;;;;;5003436;28;20042;-84
2022/05/15 06:21:44;;;;;;;1.77;1.67;;;35.30;37.70;;;;;;4986315;28;20026;-82
2022/05/15 06:24:09;;;;;;;1.88;1.77;;;36.00;37.90;;;;;;5003857;28;20096;-82
2022/05/15 06:26:35;;;;;;;2.00;1.90;;;36.50;36.70;;;;;;4988238;28;20744;-81
2022/05/15 06:29:01;;;;;;;1.65;1.55;;;36.60;36.00;;;;;;4990504;28;20082;-80
2022/05/15 06:31:27;;;;;;;1.75;1.65;;;35.80;35.70;;;;;;5001452;28;20026;-80
2022/05/15 06:33:52;;;;;;;2.60;2.28;;;35.30;36.40;;;;;;4985012;28;20030;-81
2022/05/15 06:36:18;;;;;;;3.50;2.30;;;34.60;36.10;;;;;;5003702;28;20023;-82
2022/05/15 06:38:44;;;;;;;2.35;2.13;;;33.90;37.10;;;;;;5018736;28;20010;-82
2022/05/15 06:41:10;;;;;;;3.38;2.53;;;34.10;37.90;;;;;;5003608;28;20045;-80
2022/05/15 06:43:37;;;;;;;3.60;2.33;;;34.20;36.90;;;;;;5002033;28;20034;-81
2022/05/15 06:46:03;;;;;;;2.15;1.95;;;33.50;37.40;;;;;;5002716;28;20121;-80
2022/05/15 06:48:29;;;;;;;2.13;1.70;;;33.80;37.70;;;;;;5001830;28;20022;-81
2022/05/15 06:50:55;;;;;;;2.00;1.85;;;33.60;37.60;;;;;;4985931;28;20027;-81
2022/05/15 06:53:21;;;;;;;2.15;1.90;;;34.10;37.70;;;;;;5002588;28;20045;-81
2022/05/15 06:58:33;;;;;;;2.85;2.25;;;35.50;36.40;;;;;;5001189;28;20092;-81
2022/05/15 07:00:59;;;;;;;2.38;1.90;;;35.00;36.30;;;;;;4984452;28;20486;-81
2022/05/15 07:03:25;;;;;;;1.85;1.70;;;34.10;36.80;;;;;;5006172;28;20073;-81
2022/05/15 07:05:51;;;;;;;2.13;1.92;;;33.90;37.10;;;;;;5010325;28;20045;-80
2022/05/15 07:08:17;;;;;;;1.80;1.70;;;33.00;36.80;;;;;;5015451;28;20484;-80
2022/05/15 07:10:43;;;;;;;3.13;2.40;;;30.20;38.60;;;;;;5000529;28;20034;-79
2022/05/15 07:13:09;;;;;;;3.35;2.30;;;27.10;42.40;;;;;;5001089;28;20030;-80
2022/05/15 07:15:36;;;;;;;4.28;2.58;;;24.70;46.50;;;;;;5001321;28;20038;-80
2022/05/15 07:18:06;;;;;;;3.08;2.30;;;22.90;50.00;;;;;;4999816;28;20030;-80
2022/05/15 07:20:32;;;;;;;2.33;2.10;;;21.70;52.90;;;;;;5000273;28;20030;-80
2022/05/15 07:22:58;;;;;;;3.17;2.45;;;20.90;55.00;;;;;;5008348;28;20037;-80
2022/05/15 07:25:24;;;;;;;4.30;2.38;;;20.40;57.00;;;;;;4982272;28;20476;-80
2022/05/15 07:27:50;;;;;;;4.65;2.50;;;20.10;58.10;;;;;;4980765;28;20033;-79
2022/05/15 07:30:15;;;;;;;4.35;2.58;;;19.90;59.00;;;;;;4982921;28;20023;-81
2022/05/15 07:32:41;;;;;;;3.85;2.03;;;19.70;59.40;;;;;;5001791;28;20033;-80
2022/05/15 07:35:08;;;;;;;2.95;2.45;;;19.70;59.70;;;;;;5002646;28;20065;-80
2022/05/15 07:37:33;;;;;;;2.72;2.50;;;19.70;60.00;;;;;;4985222;28;20400;-80
2022/05/15 07:39:59;;;;;;;2.35;2.00;;;19.70;59.80;;;;;;5006797;28;20030;-80
2022/05/15 07:42:25;;;;;;;4.38;2.60;;;19.70;59.90;;;;;;5003366;28;20064;-81
2022/05/15 07:44:54;;;;;;;2.15;1.90;;;19.80;59.70;;;;;;5002063;28;20113;-81
2022/05/15 07:47:20;;;;;;;2.97;1.80;;;19.90;59.40;;;;;;5002524;28;20015;-81
2022/05/15 07:49:46;;;;;;;2.85;2.38;;;20.00;59.30;;;;;;4992996;28;20026;-80
2022/05/15 07:52:12;;;;;;;5.18;3.13;;;20.00;59.60;;;;;;5012489;28;20073;-78
2022/05/15 07:54:37;;;;;;;6.82;2.88;;;20.00;59.20;;;;;;4995855;28;20029;-80
2022/05/15 07:57:04;;;;;;;4.88;2.30;;;20.10;59.50;;;;;;5012680;28;20061;-79
2022/05/15 07:59:29;;;;;;;2.55;2.13;;;20.10;59.50;;;;;;5005499;28;20046;-79
2022/05/15 08:01:55;;;;;;;8.13;2.60;;;20.20;58.60;;;;;;5001278;28;20034;-78
2022/05/15 08:04:22;;;;;;;3.20;2.58;;;20.30;57.80;;;;;;4999365;28;20514;-79
2022/05/15 08:09:33;;;;;;;3.97;2.63;;;20.50;58.80;;;;;;4998279;28;20048;-80
2022/05/15 08:11:58;;;;;;;4.95;2.20;;;20.60;58.90;;;;;;4998286;28;20491;-80
2022/05/15 08:14:24;;;;;;;2.28;1.98;;;20.70;59.00;;;;;;4998856;28;20027;-79
2022/05/15 08:16:50;;;;;;;6.85;2.65;;;20.80;58.40;;;;;;4996592;28;20027;-78
2022/05/15 08:24:45;;;;;;;3.38;2.13;;;21.10;58.20;;;;;;4998978;28;20049;-79
2022/05/15 08:27:11;;;;;;;3.70;2.33;;;21.30;58.00;;;;;;4997756;28;20104;-79
2022/05/15 08:29:37;;;;;;;2.10;1.80;;;21.40;57.90;;;;;;4997350;28;20034;-79
2022/05/15 08:32:05;;;;;;;5.57;2.47;;;21.60;58.00;;;;;;5006599;28;20023;-79
2022/05/15 08:34:30;;;;;;;4.22;3.38;;;21.70;57.60;;;;;;5001880;28;20026;-79
2022/05/15 08:36:56;;;;;;;2.95;2.40;;;21.80;57.40;;;;;;5008268;28;20030;-79
2022/05/15 08:39:22;;;;;;;2.70;2.22;;;21.80;56.80;;;;;;5012545;28;20026;-79
2022/05/15 08:41:56;;;;;;;3.05;1.90;;;21.80;57.20;;;;;;4998082;28;20085;-79
2022/05/15 08:44:29;;;;;;;2.88;2.30;;;21.90;56.90;;;;;;4994423;28;20376;-79
2022/05/15 08:47:14;;;;;;;2.75;2.35;;;22.00;56.70;;;;;;4997430;28;20412;-79
2022/05/15 08:49:47;;;;;;;5.75;2.22;;;22.10;56.10;;;;;;4980040;28;20029;-79
2022/05/15 08:52:32;;;;;;;4.35;2.35;;;22.10;55.10;;;;;;4998158;28;20089;-79
2022/05/15 08:55:04;;;;;;;4.50;2.45;;;22.30;54.30;;;;;;5002039;28;20078;-79
2022/05/15 08:57:51;;;;;;;2.05;1.88;;;22.30;53.80;;;;;;4984985;28;20030;-79
2022/05/15 09:00:31;;;;;;;2.95;2.05;;;22.50;52.60;;;;;;5004757;28;20030;-79
2022/05/15 09:03:12;;;;;;;2.85;1.75;;;22.70;52.20;;;;;;5003295;28;20325;-80
2022/05/15 09:05:41;;;;;;;2.17;1.77;;;22.90;51.60;;;;;;5004985;28;20030;-79
2022/05/15 09:08:34;;;;;;;2.85;2.38;;;23.10;51.40;;;;;;4987348;28;20041;-79
2022/05/15 09:11:09;;;;;;;3.67;2.40;;;23.20;51.50;;;;;;4985093;28;20034;-80
2022/05/15 09:13:46;;;;;;;5.43;2.40;;;23.30;52.30;;;;;;5002871;28;20097;-79
2022/05/15 09:16:24;;;;;;;8.50;2.47;;;23.30;51.80;;;;;;5006927;28;20053;-80
2022/05/15 09:18:50;;;;;;;3.58;2.33;;;23.20;52.70;;;;;;4987272;28;20046;-80
2022/05/15 09:21:17;;;;;;;4.78;2.17;;;23.20;52.70;;;;;;5005718;28;20030;-79
2022/05/15 09:23:52;;;;;;;3.75;1.88;;;23.30;51.00;;;;;;5002870;28;20472;-79
2022/05/15 09:26:26;;;;;;;5.55;2.00;;;23.50;49.50;;;;;;4991270;28;20031;-78
2022/05/15 09:28:57;;;;;;;3.13;1.23;;;23.60;47.30;;;;;;4995691;28;20030;-81
2022/05/15 09:31:25;;;;;;;2.17;1.65;;;23.70;46.20;;;;;;5005620;28;20043;-79
2022/05/15 09:34:01;;;;;;;5.35;1.73;;;23.80;44.60;;;;;;5015484;28;20019;-80
2022/05/15 09:36:30;;;;;;;3.22;1.83;;;23.90;45.90;;;;;;5011334;28;20144;-79
2022/05/15 09:39:18;;;;;;;3.95;1.42;;;23.90;46.80;;;;;;4998977;28;20373;-81
2022/05/15 09:44:42;;;;;;;4.13;2.03;;;24.00;46.60;;;;;;5003157;28;20116;-80
2022/05/15 09:47:11;;;;;;;3.00;1.73;;;24.10;47.30;;;;;;5001799;28;20034;-81
2022/05/15 09:49:37;;;;;;;7.25;1.88;;;24.10;47.60;;;;;;4997820;28;20026;-80
2022/05/15 09:52:19;;;;;;;2.17;1.50;;;24.30;46.50;;;;;;5003804;28;20466;-79
2022/05/15 09:54:46;;;;;;;;;;;24.50;46.60;;;;;;5002557;28;20030;-79
2022/05/15 09:57:25;;;;;;;3.08;1.75;;;24.60;45.70;;;;;;5003529;28;19918;-80
2022/05/15 10:00:05;;;;;;;3.15;1.65;;;24.40;45.90;;;;;;5001110;28;20022;-79
2022/05/15 10:02:44;;;;;;;3.58;1.77;;;24.40;46.20;;;;;;5001968;28;20029;-80
2022/05/15 10:05:26;;;;;;;4.70;2.20;;;24.20;46.80;;;;;;5003068;28;20031;-78
2022/05/15 10:08:01;;;;;;;2.38;1.38;;;24.30;45.70;;;;;;5008648;28;20042;-79
2022/05/15 10:10:34;;;;;;;2.03;1.80;;;24.40;46.80;;;;;;4998505;28;20068;-80
2022/05/15 10:13:13;;;;;;;3.05;1.70;;;24.50;46.60;;;;;;5000526;28;20050;-78
2022/05/15 10:15:45;;;;;;;2.22;1.70;;;24.60;46.30;;;;;;5003321;28;20054;-79
2022/05/15 10:18:14;;;;;;;;;;;24.80;46.40;;;;;;5005326;28;20018;-78
2022/05/15 10:20:49;;;;;;;3.45;1.90;;;24.90;46.20;;;;;;4989133;28;19909;-79
2022/05/15 10:23:21;;;;;;;2.92;1.92;;;25.20;45.80;;;;;;5012396;28;20010;-80
2022/05/15 10:26:00;;;;;;;4.70;1.65;;;25.10;46.10;;;;;;5008431;28;20041;-79
2022/05/15 10:28:50;;;;;;;4.10;1.98;;;25.00;46.90;;;;;;5003241;28;20025;-80
2022/05/15 10:31:32;;;;;;;3.40;1.90;;;25.10;46.70;;;;;;5002440;28;20002;-80
2022/05/15 10:34:02;;;;;;;2.25;1.92;;;25.20;46.40;;;;;;5001626;28;20019;-79
2022/05/15 10:36:45;;;;;;;2.50;2.15;;;25.20;46.30;;;;;;5004368;28;20010;-79
2022/05/15 10:39:40;;;;;;;4.50;1.90;;;25.00;47.50;;;;;;5019719;28;20014;-79
2022/05/15 10:42:13;;;;;;;3.17;2.25;;;25.10;47.10;;;;;;4968853;28;20094;-79
2022/05/15 10:45:16;;;;;;;5.60;1.80;;;25.40;47.20;;;;;;4992128;28;20105;-80
2022/05/15 10:47:45;;;;;;;3.15;1.70;;;25.60;46.50;;;;;;5007351;28;20034;-83
2022/05/15 10:50:18;;;;;;;4.13;2.42;;;25.50;46.30;;;;;;5005620;28;20100;-81
2022/05/15 10:59:38;;;;;;;2.95;1.63;;;25.20;47.10;;;;;;5012323;28;20164;-80
2022/05/15 11:02:43;;;;;;;3.17;1.60;;;25.10;47.70;;;;;;5009069;28;20071;-80
2022/05/15 11:05:30;;;;;;;7.57;2.00;;;25.50;47.60;;;;;;5006174;28;20093;-80
2022/05/15 11:08:08;;;;;;;6.30;1.88;;;25.60;47.20;;;;;;5005152;28;20384;-81
2022/05/15 11:10:40;;;;;;;2.75;2.05;;;25.60;47.20;;;;;;5015544;28;20149;-80
2022/05/15 11:13:32;;;;;;;2.92;1.50;;;25.80;46.80;;;;;;5004117;28;20033;-80
2022/05/15 11:16:24;;;;;;;3.55;2.10;;;25.90;46.80;;;;;;4971152;28;20030;-81
2022/05/15 11:19:18;;;;;;;2.22;1.60;;;25.90;46.70;;;;;;5002194;28;20041;-81
2022/05/15 11:22:11;;;;;;;3.78;2.20;;;26.00;46.90;;;;;;5010229;28;20018;-80
2022/05/15 11:24:57;;;;;;;6.78;2.13;;;26.10;46.10;;;;;;5017990;28;20011;-81
2022/05/15 11:27:44;;;;;;;3.55;1.52;;;26.00;45.70;;;;;;5012176;28;20042;-81
2022/05/15 11:30:31;;;;;;;3.45;1.70;;;25.70;46.60;;;;;;5010221;28;20033;-81
2022/05/15 11:33:09;;;;;;;6.72;2.25;;;26.00;46.80;;;;;;5011826;28;20023;-81
2022/05/15 11:35:40;;;;;;;2.70;1.60;;;26.00;45.80;;;;;;5014518;28;20014;-81
2022/05/15 11:38:20;;;;;;;3.60;1.70;;;26.00;46.20;;;;;;5007748;28;20082;-81
2022/05/15 11:40:51;;;;;;;3.83;1.50;;;26.00;46.20;;;;;;5015503;28;20054;-82
2022/05/15 11:43:26;;;;;;;3.00;2.05;;;26.00;46.50;;;;;;5012458;28;20019;-81
2022/05/15 11:45:58;;;;;;;2.03;1.70;;;26.20;45.30;;;;;;5018270;28;20043;-81
2022/05/15 11:48:32;;;;;;;4.63;1.80;;;26.10;45.60;;;;;;5011761;28;20058;-81
2022/05/15 11:51:04;;;;;;;2.85;1.52;;;26.10;45.60;;;;;;5018216;28;20018;-80
2022/05/15 11:53:52;;;;;;;2.72;1.92;;;26.00;45.50;;;;;;5001543;28;20027;-82
2022/05/15 11:56:42;;;;;;;2.90;1.70;;;26.00;45.90;;;;;;5028124;28;20010;-81
2022/05/15 11:59:25;;;;;;;4.18;2.08;;;26.00;45.60;;;;;;5025586;28;20037;-82
2022/05/15 12:01:55;;;;;;;3.28;1.90;;;26.10;45.50;;;;;;5015385;28;20666;-81
2022/05/15 12:04:36;;;;;;;1.60;1.42;;;26.10;46.10;;;;;;5012629;28;20046;-81
2022/05/15 12:07:01;;;;;;;3.95;1.85;;;26.10;45.30;;;;;;5013411;28;20133;-80
2022/05/15 12:09:32;;;;;;;3.53;1.80;;;26.10;45.60;;;;;;5020578;28;20049;-81
2022/05/15 12:12:22;;;;;;;2.05;1.48;;;26.10;44.80;;;;;;5021168;28;20061;-82
2022/05/15 12:15:16;;;;;;;3.05;1.35;;;25.90;45.70;;;;;;4995437;28;20030;-83
2022/05/15 12:17:59;;;;;;;3.40;1.70;;;26.00;45.40;;;;;;4987543;28;20030;-82
2022/05/15 12:20:28;;;;;;;2.95;1.52;;;26.30;45.30;;;;;;4987853;28;20022;-82
2022/05/15 12:23:15;;;;;;;1.98;1.30;;;26.50;44.80;;;;;;5004848;28;20340;-82
2022/05/15 12:25:47;;;;;;;6.82;2.17;;;26.70;44.40;;;;;;5007207;28;20029;-82
2022/05/15 12:28:52;;;;;;;4.28;2.10;;;26.60;43.80;;;;;;5003957;28;20023;-82
2022/05/15 12:31:33;;;;;;;3.13;1.60;;;26.30;44.10;;;;;;4987701;28;20022;-83
2022/05/15 12:34:16;;;;;;;1.70;1.30;;;26.30;44.30;;;;;;5003542;28;20034;-82
2022/05/15 12:36:50;;;;;;;3.67;1.70;;;26.30;44.40;;;;;;5003443;28;20038;-82
2022/05/15 12:39:22;;;;;;;3.97;1.60;;;26.30;44.50;;;;;;5013407;28;20018;-81
2022/05/15 12:41:48;;;;;;;2.38;1.50;;;26.40;44.10;;;;;;4999549;28;20038;-83
2022/05/15 12:44:26;;;;;;;4.40;1.60;;;26.50;44.20;;;;;;5005983;28;20033;-82
2022/05/15 12:46:58;;;;;;;3.05;1.70;;;26.50;43.70;;;;;;4999999;28;20034;-81
2022/05/15 12:49:28;;;;;;;;;;;26.50;43.80;;;;;;4989443;28;20197;-82
2022/05/15 12:52:08;;;;;;;4.93;1.77;;;26.50;44.00;;;;;;4983597;28;20410;-81
2022/05/15 12:54:33;;;;;;;5.28;1.77;;;26.80;43.70;;;;;;4999160;28;20027;-82
2022/05/15 12:57:04;;;;;;;3.15;1.15;;;26.80;42.80;;;;;;4984254;28;20369;-82
2022/05/15 12:59:39;;;;;;;5.43;2.25;;;26.60;43.10;;;;;;4984412;28;20041;-81
2022/05/15 13:02:17;;;;;;;4.20;1.80;;;26.60;42.60;;;;;;4990655;28;20439;-83
2022/05/15 13:04:49;;;;;;;5.35;2.05;;;26.50;43.00;;;;;;5008653;28;20027;-81
2022/05/15 13:07:15;;;;;;;3.70;2.00;;;26.50;43.20;;;;;;4996859;28;20069;-81
2022/05/15 13:09:40;;;;;;;3.22;1.75;;;26.60;42.30;;;;;;5004071;28;20022;-81
2022/05/15 13:12:11;;;;;;;1.60;1.27;;;26.50;42.20;;;;;;4986040;28;20042;-81
2022/05/15 13:14:40;;;;;;;3.88;1.65;;;26.60;43.00;;;;;;5003472;28;20018;-82
2022/05/15 13:17:08;;;;;;;1.65;1.52;;;26.60;42.40;;;;;;5009511;28;20065;-82
2022/05/15 13:19:44;;;;;;;2.08;1.50;;;26.70;43.10;;;;;;5012761;28;20098;-83
2022/05/15 13:22:16;;;;;;;2.08;1.63;;;27.10;42.30;;;;;;5018699;28;20026;-81
2022/05/15 13:24:42;;;;;;;3.05;1.40;;;27.10;41.60;;;;;;5019107;28;20019;-81
2022/05/15 13:27:08;;;;;;;4.68;1.42;;;27.00;41.30;;;;;;5000233;28;20041;-81
2022/05/15 13:29:37;;;;;;;2.33;1.13;;;26.70;41.40;;;;;;5016167;28;20014;-81
2022/05/15 13:32:04;;;;;;;3.03;1.70;;;26.70;42.20;;;;;;5010009;28;20686;-82
2022/05/15 13:34:31;;;;;;;4.32;1.45;;;26.80;42.10;;;;;;5009354;28;20022;-82
2022/05/15 13:37:01;;;;;;;3.80;1.73;;;26.80;41.90;;;;;;5009214;28;20034;-83
2022/05/15 13:45:15;;;;;;;4.00;1.52;;;26.90;41.60;;;;;;5030162;28;20037;-83
2022/05/15 13:48:00;;;;;;;3.05;1.40;;;27.20;40.80;;;;;;5008749;28;20030;-83
2022/05/15 13:50:35;;;;;;;4.38;1.67;;;27.10;40.60;;;;;;5009746;28;20026;-82
2022/05/15 13:53:20;;;;;;;3.88;1.80;;;27.00;40.60;;;;;;5010447;28;20034;-82
2022/05/15 13:55:48;;;;;;;2.33;1.60;;;26.90;40.70;;;;;;4998541;28;20040;-83
2022/05/15 13:58:13;;;;;;;2.50;1.70;;;27.00;40.60;;;;;;5009581;28;20109;-81
2022/05/15 14:00:40;;;;;;;2.78;1.38;;;27.00;40.70;;;;;;5013351;28;20050;-84
2022/05/15 14:03:08;;;;;;;2.05;1.45;;;27.10;40.90;;;;;;5017904;28;20038;-84
2022/05/15 14:05:40;;;;;;;1.83;1.25;;;27.20;41.00;;;;;;4990870;28;20022;-82
2022/05/15 14:08:12;;;;;;;1.40;1.30;;;27.50;40.20;;;;;;5013285;28;20117;-82
2022/05/15 14:10:39;;;;;;;1.67;1.40;;;27.40;40.00;;;;;;5009029;28;20160;-82
2022/05/15 14:13:08;;;;;;;1.60;1.50;;;27.20;39.70;;;;;;4992828;28;20033;-81
2022/05/15 14:15:44;;;;;;;4.40;1.95;;;27.40;40.30;;;;;;4999672;28;20053;-81
2022/05/15 14:18:29;;;;;;;3.47;1.40;;;27.50;39.80;;;;;;5012141;28;20535;-83
2022/05/15 14:21:15;;;;;;;4.50;1.50;;;27.30;40.40;;;;;;4990440;28;20030;-82
2022/05/15 14:23:42;;;;;;;4.22;1.73;;;27.40;40.70;;;;;;5008505;28;20031;-82
2022/05/15 14:26:10;;;;;;;3.40;1.50;;;27.60;40.30;;;;;;4991590;28;20083;-82
2022/05/15 14:28:39;;;;;;;1.38;1.27;;;27.80;40.10;;;;;;5004644;28;20090;-81
2022/05/15 14:31:06;;;;;;;2.47;1.48;;;27.90;39.30;;;;;;4988028;28;20022;-81
2022/05/15 14:33:33;;;;;;;2.83;1.80;;;27.80;39.00;;;;;;5005702;28;20049;-80
2022/05/15 14:36:03;;;;;;;1.60;1.30;;;27.60;39.50;;;;;;5006191;28;20022;-80
2022/05/15 14:38:30;;;;;;;2.28;1.35;;;27.50;39.40;;;;;;5006631;28;20031;-81
2022/05/15 14:40:56;;;;;;;2.00;1.52;;;27.30;39.50;;;;;;5000203;28;20014;-79
2022/05/15 14:43:22;;;;;;;4.60;1.75;;;27.30;39.30;;;;;;5010799;28;20037;-81
2022/05/15 14:45:51;;;;;;;2.75;1.75;;;27.10;39.50;;;;;;5004715;28;20506;-81
2022/05/15 14:48:21;;;;;;;2.25;1.65;;;26.80;39.80;;;;;;5004569;28;20463;-82
2022/05/15 14:50:48;;;;;;;1.77;1.30;;;26.80;40.10;;;;;;5006235;28;20081;-80
2022/05/15 14:53:18;;;;;;;2.78;1.33;;;26.80;40.50;;;;;;5005551;28;20037;-81
2022/05/15 14:58:31;;;;;;;2.40;1.30;;;27.00;40.50;;;;;;5010425;28;20113;-81
2022/05/15 15:00:56;;;;;;;2.88;1.40;;;27.10;39.60;;;;;;5004256;28;20219;-82
2022/05/15 15:03:22;;;;;;;1.58;1.48;;;27.10;40.20;;;;;;5005191;28;20026;-82
2022/05/15 15:05:49;;;;;;;1.10;1.00;;;27.00;39.60;;;;;;5004706;28;20032;-83
2022/05/15 15:08:21;;;;;;;2.83;1.45;;;26.90;39.60;;;;;;5004215;28;20073;-82
2022/05/15 15:10:48;;;;;;;2.05;1.60;;;26.90;39.70;;;;;;5005787;28;20078;-82
2022/05/15 15:13:15;;;;;;;2.25;1.20;;;26.90;40.00;;;;;;5004333;28;20392;-82
2022/05/15 15:15:43;;;;;;;3.88;1.60;;;27.00;39.70;;;;;;5005038;28;20030;-83
2022/05/15 15:18:09;;;;;;;1.33;1.23;;;27.00;39.50;;;;;;4986631;28;20102;-82
2022/05/15 15:20:37;;;;;;;2.25;1.55;;;27.10;39.40;;;;;;5005303;28;20022;-81
2022/05/15 15:23:03;;;;;;;2.72;1.83;;;26.90;39.10;;;;;;4990432;28;20025;-82
2022/05/15 15:25:29;;;;;;;4.15;1.73;;;26.70;39.00;;;;;;5005669;28;20082;-82
2022/05/15 15:27:55;;;;;;;2.70;1.50;;;26.40;39.70;;;;;;5005135;28;20045;-81
2022/05/15 15:30:21;;;;;;;2.90;1.25;;;26.50;39.80;;;;;;5004639;28;20025;-81
2022/05/15 15:32:47;;;;;;;1.90;1.10;;;26.50;39.80;;;;;;5005475;28;20003;-80
2022/05/15 15:35:13;;;;;;;4.20;1.23;;;26.40;40.60;;;;;;5006486;28;20058;-81
2022/05/15 15:40:23;;;;;;;2.95;1.35;;;26.50;40.60;;;;;;5013445;28;20069;-81
2022/05/15 15:42:49;;;;;;;2.00;1.10;;;26.50;39.10;;;;;;5011270;28;20030;-82
2022/05/15 15:45:15;;;;;;;3.38;1.30;;;26.30;40.10;;;;;;5011814;28;20087;-82
2022/05/15 15:47:41;;;;;;;3.85;1.33;;;26.10;40.20;;;;;;5012755;28;20038;-83
2022/05/15 15:50:08;;;;;;;1.95;1.42;;;26.00;40.40;;;;;;4999948;28;20110;-83
2022/05/15 15:52:34;;;;;;;1.58;1.40;;;26.00;40.30;;;;;;5001046;28;20037;-81
2022/05/15 15:55:00;;;;;;;1.38;1.27;;;25.90;40.30;;;;;;5002814;28;20027;-83
2022/05/15 15:57:26;;;;;;;1.60;1.20;;;25.80;40.80;;;;;;5002591;28;20022;-82
2022/05/15 15:59:51;;;;;;;2.47;1.35;;;25.90;41.10;;;;;;4986970;28;20030;-82
2022/05/15 16:02:17;;;;;;;1.17;1.08;;;26.00;41.00;;;;;;5007060;28;20075;-82
2022/05/15 16:04:43;;;;;;;2.65;1.20;;;26.00;41.00;;;;;;5010606;28;20030;-80
2022/05/15 16:07:10;;;;;;;4.80;1.30;;;26.00;40.90;;;;;;5015250;28;20050;-81
2022/05/15 16:09:40;;;;;;;2.33;1.30;;;26.00;41.50;;;;;;5014587;28;20036;-80
2022/05/15 16:12:07;;;;;;;1.42;1.33;;;25.80;41.50;;;;;;4997938;28;20018;-81
2022/05/15 16:14:38;;;;;;;1.70;1.48;;;25.60;41.70;;;;;;5014771;28;20035;-80
2022/05/15 16:17:08;;;;;;;4.50;1.70;;;25.60;41.70;;;;;;5010509;28;20022;-82
2022/05/15 16:19:34;;;;;;;3.35;1.25;;;25.60;41.90;;;;;;5004174;28;20369;-81
2022/05/15 16:22:02;;;;;;;1.45;1.20;;;25.50;42.10;;;;;;4986766;28;20026;-83
2022/05/15 16:24:37;;;;;;;1.55;1.35;;;25.40;42.20;;;;;;5004670;28;20031;-82
2022/05/15 16:27:08;;;;;;;1.73;1.20;;;25.30;42.30;;;;;;5004347;28;20031;-83
2022/05/15 16:29:38;;;;;;;1.30;1.15;;;25.30;42.70;;;;;;5003596;28;20054;-82
2022/05/15 16:32:04;;;;;;;1.95;1.17;;;25.20;42.90;;;;;;5004273;28;19999;-81
2022/05/15 16:34:30;;;;;;;5.95;1.73;;;25.20;42.70;;;;;;5003133;28;20023;-82